createdAt,value
2018-06-10T00:00:14.445Z,19.35
2018-06-10T00:02:42.986Z,20.05
2018-06-10T00:05:11.478Z,22.10
2018-06-10T00:07:40.373Z,19.70
2018-06-10T00:10:09.310Z,21.15
2018-06-10T00:12:37.842Z,21.35
2018-06-10T00:15:06.680Z,20.85
2018-06-10T00:17:35.181Z,19.50
2018-06-10T00:20:04.414Z,20.05
2018-06-10T00:22:32.724Z,19.85
2018-06-10T00:25:01.178Z,21.12
2018-06-10T00:27:29.481Z,20.17
2018-06-10T00:29:57.856Z,19.35
2018-06-10T00:32:26.131Z,18.82
2018-06-10T00:34:54.629Z,20.70
2018-06-10T00:37:23.837Z,20.75
2018-06-10T00:39:52.200Z,20.85
2018-06-10T00:42:20.596Z,20.12
2018-06-10T00:44:49.018Z,23.87
2018-06-10T00:47:17.255Z,20.35
2018-06-10T00:49:45.616Z,20.75
2018-06-10T00:52:14.021Z,22.17
2018-06-10T00:54:42.448Z,19.90
2018-06-10T00:57:10.665Z,20.10
2018-06-10T00:59:38.949Z,21.82
2018-06-10T01:02:07.359Z,20.45
2018-06-10T01:04:53.588Z,21.20
2018-06-10T01:07:22.833Z,22.95
2018-06-10T01:09:51.218Z,22.30
2018-06-10T01:12:19.459Z,19.82
2018-06-10T01:14:47.935Z,19.73
2018-06-10T01:17:16.487Z,20.15
2018-06-10T01:19:44.810Z,22.10
2018-06-10T01:22:13.178Z,21.07
2018-06-10T01:24:41.509Z,23.62
2018-06-10T01:27:09.839Z,20.70
2018-06-10T01:29:38.230Z,24.87
2018-06-10T01:32:06.695Z,25.27
2018-06-10T01:34:35.054Z,23.47
2018-06-10T01:37:03.377Z,24.07
2018-06-10T01:39:31.787Z,24.85
2018-06-10T01:42:00.264Z,27.50
2018-06-10T01:44:28.697Z,25.62
2018-06-10T01:46:56.970Z,26.57
2018-06-10T01:49:25.197Z,26.87
2018-06-10T01:51:53.621Z,25.62
2018-06-10T01:54:22.052Z,25.20
2018-06-10T01:56:50.358Z,28.47
2018-06-10T02:00:12.369Z,25.68
2018-06-10T02:02:40.710Z,25.62
2018-06-10T02:05:09.073Z,26.33
2018-06-10T02:07:37.558Z,25.43
2018-06-10T02:10:05.835Z,23.15
2018-06-10T02:12:34.225Z,25.35
2018-06-10T02:15:03.244Z,23.98
2018-06-10T02:17:31.848Z,23.87
2018-06-10T02:20:00.536Z,25.70
2018-06-10T02:22:29.097Z,26.25
2018-06-10T02:24:57.588Z,24.65
2018-06-10T02:27:25.825Z,26.20
2018-06-10T02:29:54.454Z,26.25
2018-06-10T02:32:22.768Z,28.98
2018-06-10T02:34:52.711Z,26.52
2018-06-10T02:37:21.130Z,23.18
2018-06-10T02:39:49.629Z,27.45
2018-06-10T02:42:17.813Z,24.75
2018-06-10T02:44:46.183Z,26.50
2018-06-10T02:47:14.818Z,25.00
2018-06-10T02:49:43.632Z,24.72
2018-06-10T02:52:12.067Z,23.07
2018-06-10T02:54:42.235Z,24.72
2018-06-10T02:57:10.776Z,23.30
2018-06-10T02:59:39.167Z,24.98
2018-06-10T03:02:07.639Z,23.18
2018-06-10T03:04:35.857Z,23.52
2018-06-10T03:07:04.159Z,22.15
2018-06-10T03:09:32.673Z,23.25
2018-06-10T03:12:00.998Z,24.72
2018-06-10T03:14:29.388Z,24.37
2018-06-10T03:16:57.696Z,23.35
2018-06-10T03:19:25.927Z,23.80
2018-06-10T03:21:54.340Z,26.97
2018-06-10T03:24:22.788Z,27.45
2018-06-10T03:26:51.020Z,24.80
2018-06-10T03:29:19.388Z,24.43
2018-06-10T03:31:47.770Z,26.52
2018-06-10T03:34:16.224Z,25.43
2018-06-10T03:36:44.481Z,25.97
2018-06-10T03:39:12.719Z,24.43
2018-06-10T03:41:40.988Z,25.05
2018-06-10T03:44:09.408Z,22.85
2018-06-10T03:46:37.828Z,25.10
2018-06-10T03:49:06.132Z,24.07
2018-06-10T03:51:34.410Z,25.65
2018-06-10T03:54:02.728Z,22.07
2018-06-10T03:56:31.180Z,25.05
2018-06-10T03:58:59.565Z,24.25
2018-06-10T04:01:27.994Z,23.38
2018-06-10T04:03:56.503Z,24.67
2018-06-10T04:06:24.853Z,23.27
2018-06-10T04:08:53.163Z,25.08
2018-06-10T04:11:21.538Z,25.12
2018-06-10T04:13:50.026Z,22.45
2018-06-10T04:16:18.349Z,25.37
2018-06-10T04:18:46.565Z,26.37
2018-06-10T04:21:14.853Z,23.07
2018-06-10T04:23:42.925Z,23.80
2018-06-10T04:26:11.246Z,24.43
2018-06-10T04:28:39.710Z,26.87
2018-06-10T04:31:07.989Z,26.07
2018-06-10T04:33:36.223Z,27.22
2018-06-10T04:36:04.560Z,24.32
2018-06-10T04:38:32.954Z,25.90
2018-06-10T04:41:01.349Z,26.93
2018-06-10T04:43:29.659Z,24.70
2018-06-10T04:46:04.324Z,24.75
2018-06-10T04:48:32.714Z,28.20
2018-06-10T04:51:01.746Z,24.00
2018-06-10T04:53:29.997Z,24.52
2018-06-10T04:55:58.312Z,26.75
2018-06-10T04:58:26.616Z,28.00
2018-06-10T05:00:56.070Z,26.65
2018-06-10T05:03:24.268Z,26.02
2018-06-10T05:05:52.681Z,25.17
2018-06-10T05:08:20.942Z,27.00
2018-06-10T05:10:49.289Z,24.57
2018-06-10T05:13:17.642Z,23.70
2018-06-10T05:15:45.946Z,26.15
2018-06-10T05:18:14.284Z,24.65
2018-06-10T05:20:42.522Z,25.05
2018-06-10T05:23:10.771Z,25.88
2018-06-10T05:25:39.051Z,26.73
2018-06-10T05:28:07.362Z,25.60
2018-06-10T05:30:35.628Z,26.15
2018-06-10T05:33:04.032Z,24.40
2018-06-10T05:35:32.223Z,26.40
2018-06-10T05:38:00.530Z,25.05
2018-06-10T05:40:28.920Z,25.25
2018-06-10T05:42:57.223Z,25.05
2018-06-10T05:45:25.536Z,24.40
2018-06-10T05:47:53.949Z,24.10
2018-06-10T05:50:22.568Z,24.37
2018-06-10T05:52:50.894Z,24.80
2018-06-10T05:55:19.350Z,24.47
2018-06-10T05:57:47.709Z,23.35
2018-06-10T06:00:16.039Z,22.75
2018-06-10T06:02:44.499Z,24.12
2018-06-10T06:05:13.068Z,22.13
2018-06-10T06:07:41.441Z,23.85
2018-06-10T06:10:09.766Z,21.65
2018-06-10T06:12:37.952Z,23.77
2018-06-10T06:15:06.333Z,21.33
2018-06-10T06:17:35.425Z,18.95
2018-06-10T06:20:03.767Z,19.73
2018-06-10T06:22:32.113Z,17.87
2018-06-10T06:25:00.477Z,19.02
2018-06-10T06:27:28.802Z,17.27
2018-06-10T06:29:57.181Z,16.80
2018-06-10T06:32:25.559Z,16.20
2018-06-10T06:34:53.831Z,18.17
2018-06-10T06:37:22.061Z,16.60
2018-06-10T06:39:50.230Z,14.70
2018-06-10T06:42:19.304Z,16.27
2018-06-10T06:44:47.680Z,15.90
2018-06-10T06:47:16.029Z,15.10
2018-06-10T06:49:44.372Z,14.43
2018-06-10T06:52:12.692Z,16.93
2018-06-10T06:54:41.121Z,15.95
2018-06-10T06:57:09.533Z,17.05
2018-06-10T06:59:37.971Z,15.18
2018-06-10T07:02:06.289Z,16.25
2018-06-10T07:04:34.626Z,15.70
2018-06-10T07:07:03.568Z,18.67
2018-06-10T07:09:31.940Z,17.60
2018-06-10T07:12:00.218Z,19.37
2018-06-10T07:14:28.642Z,16.00
2018-06-10T07:23:42.065Z,16.80
2018-06-10T07:26:10.369Z,16.75
2018-06-10T07:28:38.629Z,18.87
2018-06-10T07:31:06.861Z,19.70
2018-06-10T07:33:35.189Z,17.77
2018-06-10T07:36:03.368Z,16.70
2018-06-10T07:38:31.655Z,19.50
2018-06-10T07:40:59.951Z,19.07
2018-06-10T07:43:28.426Z,17.87
2018-06-10T07:45:56.860Z,17.77
2018-06-10T07:48:25.327Z,16.75
2018-06-10T07:50:53.633Z,18.60
2018-06-10T07:53:22.067Z,17.87
2018-06-10T07:55:50.491Z,17.25
2018-06-10T07:58:18.673Z,15.83
2018-06-10T08:00:46.977Z,15.90
2018-06-10T08:03:15.249Z,13.93
2018-06-10T08:05:43.534Z,15.72
2018-06-10T08:08:11.810Z,14.55
2018-06-10T08:10:40.212Z,13.93
2018-06-10T08:13:10.133Z,12.90
2018-06-10T08:15:38.556Z,14.50
2018-06-10T08:18:06.768Z,12.75
2018-06-10T08:20:35.101Z,13.90
2018-06-10T08:23:03.378Z,13.68
2018-06-10T08:25:31.774Z,13.93
2018-06-10T08:28:00.181Z,12.68
2018-06-10T08:30:28.540Z,14.07
2018-06-10T08:32:56.748Z,15.48
2018-06-10T08:35:25.039Z,12.85
2018-06-10T08:37:53.383Z,12.28
2018-06-10T08:40:21.877Z,13.55
2018-06-10T08:42:50.142Z,13.95
2018-06-10T08:45:18.511Z,20.72
2018-06-10T08:47:46.780Z,12.68
2018-06-10T08:50:14.977Z,13.93
2018-06-10T08:52:43.446Z,12.85
2018-06-10T08:55:11.750Z,12.82
2018-06-10T08:57:39.990Z,12.85
2018-06-10T09:00:08.276Z,11.12
2018-06-10T09:02:36.593Z,11.15
2018-06-10T09:05:04.914Z,11.18
2018-06-10T09:07:33.168Z,10.95
2018-06-10T09:10:01.402Z,11.80
2018-06-10T09:12:29.739Z,11.93
2018-06-10T09:14:58.074Z,15.63
2018-06-10T09:17:26.411Z,11.65
2018-06-10T09:19:54.729Z,12.45
2018-06-10T09:22:23.121Z,11.22
2018-06-10T09:24:51.432Z,11.08
2018-06-10T09:27:19.768Z,10.35
2018-06-10T09:29:48.227Z,11.20
2018-06-10T09:32:16.508Z,11.50
2018-06-10T09:34:44.796Z,11.00
2018-06-10T09:37:13.174Z,11.35
2018-06-10T09:39:41.726Z,11.03
2018-06-10T09:42:10.111Z,10.50
2018-06-10T09:44:38.707Z,10.50
2018-06-10T09:47:07.072Z,10.60
2018-06-10T09:49:35.492Z,11.18
2018-06-10T09:52:03.828Z,10.78
2018-06-10T09:54:32.232Z,11.20
2018-06-10T09:57:00.465Z,11.70
2018-06-10T09:59:28.779Z,11.90
2018-06-10T10:01:57.222Z,12.00
2018-06-10T10:04:25.542Z,11.95
2018-06-10T10:06:53.965Z,12.73
2018-06-10T10:09:22.305Z,12.65
2018-06-10T10:11:50.923Z,12.50
2018-06-10T10:14:19.260Z,11.70
2018-06-10T10:16:47.617Z,12.47
2018-06-10T10:19:16.086Z,13.05
2018-06-10T10:21:44.260Z,12.60
2018-06-10T10:24:12.680Z,13.38
2018-06-10T10:26:41.064Z,13.55
2018-06-10T10:29:10.225Z,13.65
2018-06-10T10:31:38.984Z,12.60
2018-06-10T10:34:09.006Z,13.22
2018-06-10T10:36:37.651Z,14.23
2018-06-10T10:39:10.340Z,11.33
2018-06-10T10:41:38.759Z,12.43
2018-06-10T10:44:07.161Z,12.53
2018-06-10T10:46:37.657Z,11.80
2018-06-10T10:49:06.829Z,12.20
2018-06-10T10:51:35.403Z,12.70
2018-06-10T10:54:03.920Z,11.67
2018-06-10T10:56:33.605Z,10.70
2018-06-10T10:59:02.245Z,12.77
2018-06-10T11:01:31.588Z,12.40
2018-06-10T11:04:00.881Z,12.10
2018-06-10T11:06:29.851Z,12.60
2018-06-10T11:08:58.436Z,12.00
2018-06-10T11:11:26.957Z,13.50
2018-06-10T11:13:55.272Z,11.13
2018-06-10T11:16:23.657Z,10.67
2018-06-10T11:18:52.125Z,11.30
2018-06-10T11:21:20.329Z,10.40
2018-06-10T11:23:48.666Z,10.30
2018-06-10T11:26:16.946Z,9.20
2018-06-10T11:28:45.403Z,9.40
2018-06-10T11:31:14.771Z,9.13
2018-06-10T11:33:43.189Z,8.40
2018-06-10T11:36:11.880Z,9.70
2018-06-10T11:38:40.286Z,9.10
2018-06-10T11:41:08.672Z,9.07
2018-06-10T11:43:37.031Z,10.00
2018-06-10T11:46:05.604Z,9.57
2018-06-10T11:48:34.275Z,10.37
2018-06-10T11:51:02.690Z,9.63
2018-06-10T11:53:31.044Z,10.40
2018-06-10T11:55:59.308Z,10.33
2018-06-10T11:58:27.697Z,8.67
2018-06-10T12:00:59.224Z,10.20
2018-06-10T12:03:28.478Z,6.90
2018-06-10T12:05:57.336Z,7.60
2018-06-10T12:08:26.496Z,7.70
2018-06-10T12:10:55.796Z,8.60
2018-06-10T12:13:24.633Z,11.40
2018-06-10T12:15:52.966Z,9.83
2018-06-10T12:18:23.004Z,15.10
2018-06-10T12:20:52.787Z,10.77
2018-06-10T12:23:22.789Z,14.10
2018-06-10T12:25:51.257Z,14.50
2018-06-10T12:28:19.877Z,14.87
2018-06-10T12:30:48.508Z,10.30
2018-06-10T12:33:17.432Z,9.03
2018-06-10T12:35:46.499Z,15.30
2018-06-10T12:38:15.177Z,11.43
2018-06-10T12:40:43.512Z,11.53
2018-06-10T12:43:13.592Z,10.20
2018-06-10T12:45:43.357Z,10.38
2018-06-10T12:48:11.847Z,7.62
2018-06-10T12:50:40.482Z,16.97
2018-06-10T12:53:09.920Z,8.78
2018-06-10T12:55:39.268Z,9.55
2018-06-10T12:58:07.952Z,10.63
2018-06-10T13:00:36.390Z,8.78
2018-06-10T13:03:04.949Z,12.82
2018-06-10T13:05:34.349Z,9.35
2018-06-10T13:08:04.090Z,10.53
2018-06-10T13:10:33.531Z,13.88
2018-06-10T13:13:02.809Z,9.43
2018-06-10T13:15:31.285Z,7.70
2018-06-10T13:18:02.262Z,7.92
2018-06-10T13:20:31.154Z,8.90
2018-06-10T13:22:59.488Z,7.55
2018-06-10T13:25:29.960Z,10.03
2018-06-10T13:27:58.574Z,8.65
2018-06-10T13:30:28.109Z,10.45
2018-06-10T13:32:56.808Z,10.23
2018-06-10T13:35:25.427Z,11.38
2018-06-10T13:37:54.399Z,15.63
2018-06-10T13:40:24.836Z,11.90
2018-06-10T13:42:53.961Z,12.05
2018-06-10T13:45:23.303Z,12.03
2018-06-10T13:47:51.702Z,15.25
2018-06-10T13:50:20.944Z,12.33
2018-06-10T13:52:50.444Z,10.63
2018-06-10T13:55:19.112Z,14.45
2018-06-10T13:57:48.339Z,13.05
2018-06-10T14:00:17.370Z,11.90
2018-06-10T14:02:46.742Z,10.08
2018-06-10T14:05:15.060Z,10.15
2018-06-10T14:07:44.678Z,13.43
2018-06-10T14:10:13.728Z,10.43
2018-06-10T14:12:42.953Z,13.30
2018-06-10T14:15:12.689Z,10.45
2018-06-10T14:17:41.926Z,15.25
2018-06-10T14:20:14.130Z,11.43
2018-06-10T14:22:43.896Z,11.68
2018-06-10T14:25:13.523Z,11.70
2018-06-10T14:27:41.955Z,11.85
2018-06-10T14:30:11.514Z,12.85
2018-06-10T14:32:40.092Z,11.90
2018-06-10T14:35:08.685Z,11.40
2018-06-10T14:37:37.052Z,10.90
2018-06-10T14:40:05.512Z,12.45
2018-06-10T14:42:33.994Z,15.43
2018-06-10T14:45:04.288Z,12.60
2018-06-10T14:47:33.477Z,11.60
2018-06-10T14:50:02.041Z,14.73
2018-06-10T14:52:30.634Z,10.90
2018-06-10T14:55:00.094Z,12.37
2018-06-10T14:57:28.737Z,10.82
2018-06-10T14:59:57.916Z,11.12
2018-06-10T15:02:26.526Z,11.10
2018-06-10T15:04:55.258Z,10.20
2018-06-10T15:07:25.582Z,15.85
2018-06-10T15:09:54.163Z,16.52
2018-06-10T15:12:23.610Z,19.30
2018-06-10T15:14:54.662Z,14.80
2018-06-10T15:17:25.073Z,23.12
2018-06-10T15:19:54.163Z,21.27
2018-06-10T15:22:23.101Z,22.75
2018-06-10T15:24:52.436Z,21.70
2018-06-10T15:27:20.919Z,21.55
2018-06-10T15:29:49.609Z,14.63
2018-06-10T15:32:20.023Z,15.55
2018-06-10T15:34:49.576Z,18.35
2018-06-10T15:37:17.992Z,17.25
2018-06-10T15:39:47.647Z,17.95
2018-06-10T15:42:18.075Z,15.98
2018-06-10T15:44:47.918Z,17.15
2018-06-10T15:47:19.303Z,19.42
2018-06-10T15:49:50.139Z,20.02
2018-06-10T15:52:19.249Z,17.42
2018-06-10T15:54:47.969Z,19.57
2018-06-10T15:57:16.530Z,18.52
2018-06-10T15:59:46.843Z,18.92
2018-06-10T16:02:17.664Z,18.12
2018-06-10T16:04:47.408Z,18.48
2018-06-10T16:07:18.618Z,19.50
2018-06-10T16:09:47.112Z,17.82
2018-06-10T16:12:16.508Z,17.80
2018-06-10T16:14:45.923Z,19.00
2018-06-10T16:17:16.291Z,19.05
2018-06-10T16:19:46.564Z,19.60
2018-06-10T16:22:15.476Z,20.27
2018-06-10T16:24:43.898Z,18.87
2018-06-10T16:27:12.260Z,18.27
2018-06-10T16:29:40.572Z,18.87
2018-06-10T16:32:08.905Z,18.95
2018-06-10T16:34:37.228Z,18.17
2018-06-10T16:37:05.584Z,20.00
2018-06-10T16:39:34.841Z,20.52
2018-06-10T16:42:05.140Z,17.95
2018-06-10T16:44:34.637Z,17.32
2018-06-10T16:47:02.941Z,18.00
2018-06-10T16:49:33.535Z,17.82
2018-06-10T16:52:02.625Z,16.80
2018-06-10T16:54:31.933Z,14.95
2018-06-10T16:57:00.775Z,16.20
2018-06-10T16:59:31.566Z,16.15
2018-06-10T17:02:01.532Z,18.10
2018-06-10T17:04:30.060Z,17.75
2018-06-10T17:06:58.423Z,26.12
2018-06-10T17:09:26.732Z,17.70
2018-06-10T17:11:55.832Z,18.37
2018-06-10T17:14:25.426Z,18.50
2018-06-10T17:16:55.760Z,17.95
2018-06-10T17:19:25.459Z,17.70
2018-06-10T17:21:54.037Z,18.37
2018-06-10T17:24:23.423Z,19.32
2018-06-10T17:26:52.638Z,18.15
2018-06-10T17:29:20.976Z,17.00
2018-06-10T17:31:50.333Z,19.27
2018-06-10T17:34:21.108Z,18.32
2018-06-10T17:36:51.002Z,19.30
2018-06-10T17:39:20.083Z,16.87
2018-06-10T17:41:48.424Z,17.50
2018-06-10T17:44:16.825Z,17.57
2018-06-10T17:46:45.134Z,16.27
2018-06-10T17:49:13.467Z,17.87
2018-06-10T17:51:41.802Z,15.65
2018-06-10T17:54:15.074Z,22.27
2018-06-10T17:56:43.459Z,16.82
2018-06-10T17:59:12.188Z,14.98
2018-06-10T18:01:40.468Z,16.02
2018-06-10T18:04:08.756Z,18.12
2018-06-10T18:06:39.264Z,18.07
2018-06-10T18:09:08.638Z,15.88
2018-06-10T18:11:36.729Z,16.27
2018-06-10T18:14:06.243Z,17.65
2018-06-10T18:16:34.653Z,15.60
2018-06-10T18:19:03.122Z,15.08
2018-06-10T18:21:31.853Z,14.85
2018-06-10T18:24:01.001Z,15.35
2018-06-10T18:26:30.190Z,15.78
2018-06-10T18:28:58.653Z,14.85
2018-06-10T18:31:27.972Z,15.83
2018-06-10T18:33:57.328Z,21.45
2018-06-10T18:36:25.884Z,14.45
2018-06-10T18:38:56.230Z,16.27
2018-06-10T18:41:24.588Z,14.70
2018-06-10T18:43:54.643Z,14.47
2018-06-10T18:46:25.233Z,18.15
2018-06-10T18:48:54.745Z,17.30
2018-06-10T18:51:23.356Z,16.27
2018-06-10T18:53:52.701Z,16.82
2018-06-10T18:56:22.240Z,16.42
2018-06-10T18:58:51.196Z,15.93
2018-06-10T19:01:24.818Z,15.60
2018-06-10T19:03:54.271Z,16.65
2018-06-10T19:06:23.391Z,16.32
2018-06-10T19:08:51.727Z,16.90
2018-06-10T19:11:22.396Z,18.50
2018-06-10T19:13:50.671Z,28.23
2018-06-10T19:16:18.948Z,63.70
2018-06-10T19:18:47.423Z,19.95
2018-06-10T19:21:15.685Z,17.77
2018-06-10T19:23:44.332Z,17.52
2018-06-10T19:26:12.649Z,16.48
2018-06-10T19:28:41.021Z,17.25
2018-06-10T19:31:09.425Z,19.42
2018-06-10T19:33:37.855Z,17.52
2018-06-10T19:36:06.201Z,19.42
2018-06-10T19:38:35.771Z,19.30
2018-06-10T19:41:04.111Z,18.98
2018-06-10T19:43:32.571Z,16.80
2018-06-10T19:46:00.908Z,16.52
2018-06-10T19:48:29.337Z,15.53
2018-06-10T19:50:58.339Z,16.37
2018-06-10T19:53:26.763Z,17.50
2018-06-10T19:55:55.126Z,17.45
2018-06-10T19:58:23.694Z,15.28
2018-06-10T20:00:52.519Z,16.40
2018-06-10T20:03:21.090Z,16.70
2018-06-10T20:05:49.708Z,19.23
2018-06-10T20:08:18.251Z,16.70
2018-06-10T20:10:47.256Z,17.87
2018-06-10T20:13:15.976Z,19.40
2018-06-10T20:15:44.575Z,18.27
2018-06-10T20:18:13.191Z,20.75
2018-06-10T20:20:42.442Z,19.00
2018-06-10T20:23:11.789Z,17.50
2018-06-10T20:25:41.976Z,17.45
2018-06-10T20:28:11.397Z,16.23
2018-06-10T20:30:41.242Z,18.00
2018-06-10T20:33:09.859Z,16.65
2018-06-10T20:35:38.462Z,17.60
2018-06-10T20:38:10.403Z,16.73
2018-06-10T20:40:39.106Z,17.07
2018-06-10T20:43:10.700Z,31.40
2018-06-10T20:45:40.481Z,19.07
2018-06-10T20:48:11.983Z,17.45
2018-06-10T20:50:40.947Z,14.70
2018-06-10T20:53:10.990Z,16.48
2018-06-10T20:55:41.130Z,17.65
2018-06-10T20:58:10.140Z,17.52
2018-06-10T21:00:39.543Z,15.45
2018-06-10T21:03:11.426Z,16.05
2018-06-10T21:05:40.270Z,16.15
2018-06-10T21:08:20.836Z,15.13
2018-06-10T21:10:53.499Z,16.25
2018-06-10T21:13:25.217Z,15.72
2018-06-10T21:16:13.950Z,17.35
2018-06-10T21:18:44.867Z,16.10
2018-06-10T21:21:14.820Z,18.10
2018-06-10T21:23:44.924Z,15.43
2018-06-10T21:26:21.885Z,14.87
2018-06-10T21:28:51.175Z,16.00
2018-06-10T21:31:21.443Z,15.72
2018-06-10T21:33:51.214Z,14.85
2018-06-10T21:36:21.657Z,15.53
2018-06-10T21:38:52.197Z,16.23
2018-06-10T21:41:56.311Z,13.65
2018-06-10T21:44:25.562Z,14.55
2018-06-10T21:46:56.069Z,15.35
2018-06-10T21:49:25.617Z,13.10
2018-06-10T21:51:54.718Z,14.53
2018-06-10T21:54:27.768Z,13.13
2018-06-10T21:57:06.429Z,13.43
2018-06-10T21:59:40.390Z,14.23
2018-06-10T22:02:09.354Z,13.62
2018-06-10T22:04:42.591Z,11.80
2018-06-10T22:07:12.487Z,13.43
2018-06-10T22:09:43.098Z,13.18
2018-06-10T22:12:11.569Z,11.68
2018-06-10T22:14:39.955Z,14.00
2018-06-10T22:17:09.305Z,13.45
2018-06-10T22:19:37.857Z,14.28
2018-06-10T22:22:06.173Z,13.38
2018-06-10T22:24:34.701Z,11.80
2018-06-10T22:27:02.904Z,12.10
2018-06-10T22:29:32.503Z,10.48
2018-06-10T22:32:01.095Z,11.25
2018-06-10T22:34:29.487Z,10.38
2018-06-10T22:36:58.352Z,11.10
2018-06-10T22:39:26.646Z,11.68
2018-06-10T22:41:55.129Z,11.63
2018-06-10T22:44:23.469Z,11.05
2018-06-10T22:46:51.902Z,10.93
2018-06-10T22:49:20.387Z,11.73
2018-06-10T22:51:48.830Z,11.78
2018-06-10T22:54:28.589Z,12.55
2018-06-10T22:58:26.591Z,13.65
2018-06-10T23:00:55.299Z,12.70
2018-06-10T23:03:23.735Z,13.55
2018-06-10T23:05:52.181Z,12.63
2018-06-10T23:08:20.665Z,11.80
2018-06-10T23:10:49.258Z,13.00
2018-06-10T23:13:17.804Z,12.47
2018-06-10T23:15:46.286Z,12.50
2018-06-10T23:18:14.933Z,12.80
2018-06-10T23:20:43.314Z,13.10
2018-06-10T23:23:11.664Z,14.93
2018-06-10T23:25:39.986Z,13.72
2018-06-10T23:28:08.232Z,14.75
2018-06-10T23:30:36.581Z,15.90
2018-06-10T23:33:04.872Z,13.30
2018-06-10T23:35:33.089Z,13.00
2018-06-10T23:38:01.549Z,14.03
2018-06-10T23:40:29.916Z,15.53
2018-06-10T23:42:58.449Z,15.23
2018-06-10T23:45:26.815Z,14.63
2018-06-10T23:47:55.138Z,15.03
2018-06-10T23:50:23.513Z,14.53
2018-06-10T23:52:51.779Z,16.27
2018-06-10T23:55:20.393Z,15.70
2018-06-10T23:57:48.705Z,16.05
